createdAt,value
2023-04-12T00:01:20.943Z,60.95
2023-04-12T00:03:54.469Z,61.83
2023-04-12T00:06:27.813Z,61.03
2023-04-12T00:08:56.625Z,61.79
2023-04-12T00:11:25.426Z,63.09
2023-04-12T00:13:54.270Z,63.71
2023-04-12T00:16:25.021Z,63.34
2023-04-12T00:18:53.796Z,63.66
2023-04-12T00:21:24.396Z,64.59
2023-04-12T00:23:53.187Z,66.31
2023-04-12T00:26:22.478Z,65.31
2023-04-12T00:28:51.160Z,65.27
2023-04-12T00:31:19.764Z,66.81
2023-04-12T00:33:49.851Z,66.34
2023-04-12T00:36:18.836Z,66.98
2023-04-12T00:38:47.440Z,67.07
2023-04-12T00:41:16.463Z,66.25
2023-04-12T00:43:45.314Z,67.83
2023-04-12T00:46:14.381Z,68.43
2023-04-12T00:48:43.048Z,68.79
2023-04-12T00:51:13.308Z,67.87
2023-04-12T00:53:42.629Z,67.61
2023-04-12T00:56:12.377Z,69.29
2023-04-12T00:58:41.839Z,69.07
2023-04-12T01:01:10.826Z,68.30
2023-04-12T01:03:43.597Z,67.82
2023-04-12T01:06:30.054Z,67.58
2023-04-12T01:09:12.670Z,68.67
2023-04-12T01:11:47.016Z,68.70
2023-04-12T01:14:22.016Z,69.40
2023-04-12T01:16:55.466Z,70.21
2023-04-12T01:19:38.546Z,69.11
2023-04-12T01:22:38.906Z,69.91
2023-04-12T01:25:24.544Z,68.84
2023-04-12T01:27:58.730Z,67.23
2023-04-12T01:30:29.995Z,66.51
2023-04-12T01:33:02.494Z,65.85
2023-04-12T01:35:35.093Z,66.63
2023-04-12T01:38:05.927Z,65.99
2023-04-12T01:40:37.188Z,65.79
2023-04-12T01:43:08.960Z,65.64
2023-04-12T01:45:37.995Z,65.27
2023-04-12T01:48:09.599Z,64.96
2023-04-12T01:50:46.277Z,64.76
2023-04-12T01:53:20.395Z,64.58
2023-04-12T01:55:50.456Z,64.69
2023-04-12T01:58:23.657Z,64.67
2023-04-12T02:00:54.568Z,65.61
2023-04-12T02:03:25.040Z,65.47
2023-04-12T02:05:55.042Z,65.17
2023-04-12T02:08:23.820Z,64.83
2023-04-12T02:10:52.907Z,65.32
2023-04-12T02:13:22.991Z,67.40
2023-04-12T02:15:54.799Z,68.52
2023-04-12T02:18:24.558Z,68.81
2023-04-12T02:20:53.168Z,69.36
2023-04-12T02:23:21.986Z,70.43
2023-04-12T02:25:50.705Z,71.05
2023-04-12T02:28:19.419Z,71.58
2023-04-12T02:30:49.659Z,70.44
2023-04-12T02:33:18.457Z,70.60
2023-04-12T02:35:47.907Z,70.39
2023-04-12T02:38:16.927Z,70.85
2023-04-12T02:40:45.655Z,71.24
2023-04-12T02:43:14.448Z,72.32
2023-04-12T02:45:43.868Z,73.87
2023-04-12T02:48:14.138Z,74.22
2023-04-12T02:50:42.704Z,73.28
2023-04-12T02:53:11.368Z,73.40
2023-04-12T02:55:40.756Z,74.40
2023-04-12T02:58:09.695Z,74.08
2023-04-12T03:00:38.378Z,74.77
2023-04-12T03:03:09.265Z,75.04
2023-04-12T03:05:39.963Z,74.84
2023-04-12T03:08:08.823Z,75.05
2023-04-12T03:10:37.525Z,74.60
2023-04-12T03:13:06.365Z,75.04
2023-04-12T03:15:35.232Z,75.13
2023-04-12T03:18:04.137Z,75.17
2023-04-12T03:20:33.853Z,75.36
2023-04-12T03:23:04.402Z,75.47
2023-04-12T03:25:33.317Z,75.92
2023-04-12T03:28:02.355Z,76.74
2023-04-12T03:30:31.291Z,76.49
2023-04-12T03:32:59.972Z,76.37
2023-04-12T03:35:28.821Z,77.10
2023-04-12T03:37:57.374Z,77.52
2023-04-12T03:40:28.062Z,77.00
2023-04-12T03:42:56.641Z,77.28
2023-04-12T03:45:26.012Z,77.45
2023-04-12T03:47:54.752Z,77.96
2023-04-12T03:50:24.314Z,76.64
2023-04-12T03:52:53.067Z,78.13
2023-04-12T03:55:21.794Z,79.12
2023-04-12T03:57:51.948Z,80.09
2023-04-12T04:00:20.583Z,82.62
2023-04-12T04:02:50.580Z,83.60
2023-04-12T04:05:19.549Z,83.46
2023-04-12T04:07:48.426Z,83.80
2023-04-12T04:10:17.413Z,83.44
2023-04-12T04:12:46.113Z,83.11
2023-04-12T04:15:17.283Z,83.49
2023-04-12T04:17:47.777Z,83.86
2023-04-12T04:20:16.584Z,83.18
2023-04-12T04:22:48.426Z,82.15
2023-04-12T04:25:17.736Z,83.36
2023-04-12T04:27:46.365Z,83.10
2023-04-12T04:30:17.193Z,83.23
2023-04-12T04:32:46.341Z,82.57
2023-04-12T04:35:17.118Z,81.82
2023-04-12T04:37:46.038Z,81.18
2023-04-12T04:40:15.537Z,81.37
2023-04-12T04:42:46.837Z,81.54
2023-04-12T04:45:17.465Z,81.38
2023-04-12T04:47:46.056Z,80.09
2023-04-12T04:50:14.728Z,78.47
2023-04-12T04:52:43.522Z,78.79
2023-04-12T04:55:13.316Z,78.10
2023-04-12T04:57:43.078Z,74.83
2023-04-12T05:00:13.638Z,74.95
2023-04-12T05:02:44.690Z,73.41
2023-04-12T05:05:14.398Z,72.23
2023-04-12T05:07:43.660Z,72.18
2023-04-12T05:10:13.478Z,72.50
2023-04-12T05:12:42.514Z,73.96
2023-04-12T05:15:12.642Z,74.82
2023-04-12T05:17:42.972Z,75.29
2023-04-12T05:20:12.413Z,75.81
2023-04-12T05:22:41.175Z,75.69
2023-04-12T05:25:10.955Z,75.33
2023-04-12T05:27:39.672Z,75.32
2023-04-12T05:30:09.824Z,74.82
2023-04-12T05:32:38.649Z,74.13
2023-04-12T05:35:09.602Z,73.78
2023-04-12T05:37:38.673Z,73.75
2023-04-12T05:40:10.073Z,73.61
2023-04-12T05:42:38.904Z,74.16
2023-04-12T05:45:08.629Z,75.27
2023-04-12T05:47:38.576Z,74.96
2023-04-12T05:50:11.956Z,75.12
2023-04-12T05:52:41.094Z,74.69
2023-04-12T05:55:10.377Z,74.32
2023-04-12T05:57:39.214Z,73.26
2023-04-12T06:00:13.554Z,71.89
2023-04-12T06:02:42.707Z,71.40
2023-04-12T06:05:13.222Z,71.06
2023-04-12T06:07:48.480Z,70.87
2023-04-12T06:10:18.314Z,69.27
2023-04-12T06:12:46.854Z,69.98
2023-04-12T06:15:15.512Z,70.19
2023-04-12T06:17:44.088Z,71.55
2023-04-12T06:20:16.132Z,71.43
2023-04-12T06:22:44.911Z,71.43
2023-04-12T06:25:13.636Z,71.13
2023-04-12T06:27:42.430Z,71.22
2023-04-12T06:30:11.965Z,71.44
2023-04-12T06:32:40.681Z,70.88
2023-04-12T06:35:09.966Z,70.44
2023-04-12T06:37:40.221Z,69.41
2023-04-12T06:40:11.646Z,70.17
2023-04-12T06:42:40.785Z,70.08
2023-04-12T06:45:10.155Z,70.00
2023-04-12T06:47:38.879Z,70.75
2023-04-12T06:50:08.764Z,70.85
2023-04-12T06:52:37.350Z,70.72
2023-04-12T06:55:08.921Z,70.66
2023-04-12T06:57:37.928Z,69.74
2023-04-12T07:00:07.701Z,68.82
2023-04-12T07:02:36.564Z,68.68
2023-04-12T07:05:05.520Z,67.30
2023-04-12T07:07:34.360Z,67.21
2023-04-12T07:10:04.741Z,65.33
2023-04-12T07:12:35.173Z,64.89
2023-04-12T07:15:03.853Z,63.89
2023-04-12T07:17:32.805Z,62.45
2023-04-12T07:20:01.442Z,60.71
2023-04-12T07:22:29.873Z,59.85
2023-04-12T07:24:58.503Z,57.57
2023-04-12T07:27:27.311Z,56.70
2023-04-12T07:29:58.664Z,56.48
2023-04-12T07:32:27.646Z,56.43
2023-04-12T07:34:56.417Z,55.77
2023-04-12T07:37:25.283Z,55.56
2023-04-12T07:39:54.196Z,54.46
2023-04-12T07:42:22.898Z,53.47
2023-04-12T07:44:51.483Z,53.32
2023-04-12T07:47:22.293Z,54.63
2023-04-12T07:49:51.094Z,54.06
2023-04-12T07:52:19.671Z,53.43
2023-04-12T07:54:48.260Z,52.56
2023-04-12T07:57:16.869Z,52.51
2023-04-12T07:59:45.453Z,52.54
2023-04-12T08:02:14.384Z,53.97
2023-04-12T08:04:46.045Z,53.72
2023-04-12T08:07:15.061Z,53.67
2023-04-12T08:09:43.701Z,54.76
2023-04-12T08:12:12.521Z,54.79
2023-04-12T08:14:41.253Z,55.81
2023-04-12T08:17:09.989Z,55.79
2023-04-12T08:19:38.700Z,56.00
2023-04-12T08:22:12.007Z,55.52
2023-04-12T08:24:41.778Z,54.77
2023-04-12T08:27:11.798Z,54.87
2023-04-12T08:29:40.288Z,55.23
2023-04-12T08:32:13.280Z,53.67
2023-04-12T08:34:44.763Z,53.88
2023-04-12T08:37:17.250Z,52.47
2023-04-12T08:39:46.197Z,53.33
2023-04-12T08:42:17.431Z,53.72
2023-04-12T08:44:46.327Z,52.84
2023-04-12T08:47:14.947Z,53.63
2023-04-12T08:49:43.607Z,53.14
2023-04-12T08:52:12.731Z,53.02
2023-04-12T08:54:42.837Z,51.90
2023-04-12T08:57:11.987Z,52.78
2023-04-12T08:59:43.994Z,52.08
2023-04-12T09:02:15.519Z,52.47
2023-04-12T09:04:51.129Z,51.66
2023-04-12T09:07:20.050Z,51.52
2023-04-12T09:09:50.549Z,50.56
2023-04-12T09:12:24.265Z,52.34
2023-04-12T09:15:10.032Z,51.59
2023-04-12T09:17:39.290Z,52.81
2023-04-12T09:20:26.582Z,53.51
2023-04-12T09:22:56.054Z,53.87
2023-04-12T09:25:45.461Z,52.42
2023-04-12T09:28:22.125Z,51.29
2023-04-12T09:30:53.283Z,52.05
2023-04-12T09:33:23.502Z,51.54
2023-04-12T09:35:52.658Z,52.58
2023-04-12T09:38:21.687Z,52.65
2023-04-12T09:40:52.260Z,51.77
2023-04-12T09:43:21.437Z,52.24
2023-04-12T09:45:50.184Z,51.08
2023-04-12T09:48:22.449Z,48.98
2023-04-12T09:51:00.497Z,49.96
2023-04-12T09:53:29.544Z,49.84
2023-04-12T09:56:00.906Z,49.55
2023-04-12T09:58:31.666Z,49.19
2023-04-12T10:01:02.709Z,47.49
2023-04-12T10:03:32.598Z,46.77
2023-04-12T10:06:01.546Z,49.12
2023-04-12T10:08:30.318Z,47.91
2023-04-12T10:11:01.146Z,47.97
2023-04-12T10:13:30.958Z,48.97
2023-04-12T10:16:01.713Z,48.23
2023-04-12T10:18:31.615Z,48.09
2023-04-12T10:21:00.927Z,46.10
2023-04-12T10:23:29.917Z,44.59
2023-04-12T10:26:01.501Z,47.16
2023-04-12T10:28:30.176Z,45.68
2023-04-12T10:30:59.482Z,44.79
2023-04-12T10:33:29.181Z,45.71
2023-04-12T10:36:04.154Z,44.91
2023-04-12T10:38:46.253Z,45.50
2023-04-12T10:41:21.004Z,44.44
2023-04-12T10:43:50.758Z,44.72
2023-04-12T10:46:53.105Z,43.88
2023-04-12T10:49:21.941Z,46.20
2023-04-12T10:52:14.118Z,44.09
2023-04-12T10:54:42.798Z,43.30
2023-04-12T10:57:42.702Z,42.68
2023-04-12T11:00:12.251Z,44.93
2023-04-12T11:03:12.751Z,44.89
2023-04-12T11:06:20.133Z,45.78
2023-04-12T11:08:57.274Z,45.03
2023-04-12T11:11:27.829Z,45.32
2023-04-12T11:14:00.028Z,45.04
2023-04-12T11:16:28.713Z,44.84
2023-04-12T11:18:58.009Z,45.42
2023-04-12T11:21:27.837Z,45.07
2023-04-12T11:23:57.175Z,44.94
2023-04-12T11:26:26.248Z,45.15
2023-04-12T11:28:56.418Z,44.68
2023-04-12T11:31:27.445Z,45.07
2023-04-12T11:33:56.530Z,43.78
2023-04-12T11:36:25.246Z,44.86
2023-04-12T11:38:57.357Z,45.45
2023-04-12T11:41:26.192Z,44.96
2023-04-12T11:43:54.917Z,46.12
2023-04-12T11:46:24.621Z,45.23
2023-04-12T11:48:55.806Z,45.33
2023-04-12T11:51:31.665Z,44.55
2023-04-12T11:54:01.256Z,44.32
2023-04-12T11:56:32.140Z,42.30
2023-04-12T11:59:00.889Z,41.27
2023-04-12T12:01:29.554Z,42.38
2023-04-12T12:04:01.353Z,41.44
2023-04-12T12:06:31.676Z,44.09
2023-04-12T12:09:01.059Z,43.16
2023-04-12T12:11:29.750Z,42.91
2023-04-12T12:14:03.636Z,43.86
2023-04-12T12:16:33.700Z,45.54
2023-04-12T12:19:06.338Z,43.31
2023-04-12T12:21:35.988Z,42.33
2023-04-12T12:24:04.679Z,41.66
2023-04-12T12:26:33.266Z,42.35
2023-04-12T12:29:02.022Z,41.90
2023-04-12T12:31:31.512Z,40.49
2023-04-12T12:34:04.220Z,41.90
2023-04-12T12:36:36.733Z,40.66
2023-04-12T12:39:09.609Z,43.15
2023-04-12T12:41:39.233Z,41.21
2023-04-12T12:44:08.412Z,39.77
2023-04-12T12:46:52.050Z,42.21
2023-04-12T12:49:22.567Z,40.47
2023-04-12T12:51:53.167Z,41.85
2023-04-12T12:54:39.431Z,42.40
2023-04-12T12:57:09.625Z,41.45
2023-04-12T12:59:38.428Z,43.08
2023-04-12T13:02:07.994Z,40.96
2023-04-12T13:04:36.883Z,40.71
2023-04-12T13:07:07.067Z,39.80
2023-04-12T13:09:35.752Z,40.67
2023-04-12T13:12:04.555Z,40.19
2023-04-12T13:14:33.311Z,41.03
2023-04-12T13:17:02.359Z,41.22
2023-04-12T13:19:30.942Z,40.45
2023-04-12T13:21:59.648Z,39.54
2023-04-12T13:24:29.878Z,40.21
2023-04-12T13:26:58.886Z,40.90
2023-04-12T13:29:27.672Z,40.37
2023-04-12T13:31:56.351Z,42.38
2023-04-12T13:34:25.044Z,42.47
2023-04-12T13:36:54.228Z,40.40
2023-04-12T13:39:24.609Z,41.34
2023-04-12T13:41:54.978Z,41.35
2023-04-12T13:44:23.728Z,38.61
2023-04-12T13:46:52.467Z,38.35
2023-04-12T13:49:21.048Z,38.56
2023-04-12T13:51:49.785Z,38.28
2023-04-12T13:54:18.370Z,39.08
2023-04-12T13:56:47.169Z,36.73
2023-04-12T13:59:17.852Z,35.23
2023-04-12T14:01:46.697Z,34.49
2023-04-12T14:04:15.376Z,34.22
2023-04-12T14:06:45.693Z,34.47
2023-04-12T14:09:25.759Z,34.78
2023-04-12T14:11:56.494Z,34.02
2023-04-12T14:14:28.670Z,33.84
2023-04-12T14:16:58.082Z,32.72
2023-04-12T14:19:27.543Z,33.46
2023-04-12T14:21:57.026Z,31.79
2023-04-12T14:24:26.907Z,32.36
2023-04-12T14:26:57.757Z,33.12
2023-04-12T14:29:28.217Z,34.40
2023-04-12T14:31:56.887Z,33.15
2023-04-12T14:34:25.504Z,32.33
2023-04-12T14:36:54.248Z,32.76
2023-04-12T14:39:24.562Z,32.52
2023-04-12T14:41:53.077Z,31.70
2023-04-12T14:44:23.933Z,32.45
2023-04-12T14:46:58.004Z,32.01
2023-04-12T14:49:26.927Z,31.79
2023-04-12T14:51:55.766Z,30.62
2023-04-12T14:54:24.486Z,30.05
2023-04-12T14:56:55.520Z,29.65
2023-04-12T14:59:25.229Z,29.97
2023-04-12T15:01:54.120Z,31.72
2023-04-12T15:04:24.558Z,30.82
2023-04-12T15:06:53.757Z,31.31
2023-04-12T15:09:22.390Z,32.41
2023-04-12T15:12:00.975Z,31.87
2023-04-12T15:14:30.326Z,33.83
2023-04-12T15:16:59.035Z,34.81
2023-04-12T15:19:29.832Z,35.29
2023-04-12T15:21:58.896Z,35.27
2023-04-12T15:24:27.630Z,35.49
2023-04-12T15:26:57.159Z,36.26
2023-04-12T15:29:29.333Z,38.47
2023-04-12T15:31:58.038Z,37.41
2023-04-12T15:34:30.134Z,38.53
2023-04-12T15:37:00.337Z,37.86
2023-04-12T15:39:29.231Z,37.73
2023-04-12T15:41:57.910Z,38.44
2023-04-12T15:44:31.977Z,40.06
2023-04-12T15:47:10.970Z,39.67
2023-04-12T15:49:41.888Z,39.19
2023-04-12T15:52:13.144Z,39.19
2023-04-12T15:54:44.029Z,40.64
2023-04-12T15:57:12.841Z,40.15
2023-04-12T15:59:42.452Z,39.25
2023-04-12T16:02:11.287Z,39.38
2023-04-12T16:04:40.698Z,40.65
2023-04-12T16:07:09.591Z,41.46
2023-04-12T16:09:40.660Z,41.76
2023-04-12T16:12:09.469Z,41.42
2023-04-12T16:14:39.687Z,41.35
2023-04-12T16:17:08.748Z,40.14
2023-04-12T16:19:37.786Z,40.89
2023-04-12T16:22:06.462Z,41.02
2023-04-12T16:24:35.123Z,40.61
2023-04-12T16:27:05.174Z,40.04
2023-04-12T16:29:33.772Z,41.01
2023-04-12T16:32:02.787Z,40.77
2023-04-12T16:34:31.886Z,41.26
2023-04-12T16:37:00.801Z,41.06
2023-04-12T16:39:29.390Z,41.79
2023-04-12T16:41:58.004Z,41.80
2023-04-12T16:44:27.964Z,42.70
2023-04-12T16:46:56.686Z,43.56
2023-04-12T16:49:26.817Z,44.84
2023-04-12T16:51:55.473Z,48.30
2023-04-12T16:54:24.232Z,50.60
2023-04-12T16:56:53.129Z,50.57
2023-04-12T16:59:21.902Z,47.33
2023-04-12T17:01:52.448Z,50.14
2023-04-12T17:04:21.197Z,49.49
2023-04-12T17:06:50.201Z,49.14
2023-04-12T17:09:18.729Z,49.52
2023-04-12T17:11:47.513Z,49.42
2023-04-12T17:14:16.820Z,50.75
2023-04-12T17:16:45.523Z,49.81
2023-04-12T17:19:15.555Z,52.27
2023-04-12T17:21:45.112Z,56.45
2023-04-12T17:24:13.858Z,57.70
2023-04-12T17:26:42.921Z,57.15
2023-04-12T17:29:11.555Z,57.04
2023-04-12T17:31:41.382Z,54.84
2023-04-12T17:34:10.217Z,59.38
2023-04-12T17:36:42.527Z,60.09
2023-04-12T17:39:11.761Z,60.90
2023-04-12T17:41:41.388Z,61.03
2023-04-12T17:44:10.345Z,60.71
2023-04-12T17:46:38.957Z,59.40
2023-04-12T17:49:09.138Z,58.11
2023-04-12T17:51:37.790Z,59.63
2023-04-12T17:54:08.103Z,58.47
2023-04-12T17:56:36.987Z,60.37
2023-04-12T17:59:05.923Z,61.83
2023-04-12T18:01:36.824Z,61.80
2023-04-12T18:04:07.491Z,61.21
2023-04-12T18:06:36.359Z,61.41
2023-04-12T18:09:07.339Z,61.78
2023-04-12T18:11:39.183Z,62.37
2023-04-12T18:14:08.042Z,61.62
2023-04-12T18:16:37.899Z,61.03
2023-04-12T18:19:08.552Z,61.35
2023-04-12T18:21:37.589Z,62.31
2023-04-12T18:24:07.159Z,61.11
2023-04-12T18:26:37.262Z,59.66
2023-04-12T18:29:06.041Z,59.17
2023-04-12T18:31:35.800Z,60.22
2023-04-12T18:34:04.550Z,61.78
2023-04-12T18:36:33.421Z,63.15
2023-04-12T18:39:02.241Z,62.95
2023-04-12T18:41:32.870Z,63.92
2023-04-12T18:44:03.092Z,63.33
2023-04-12T18:46:31.777Z,63.81
2023-04-12T18:49:00.381Z,63.16
2023-04-12T18:51:29.262Z,61.81
2023-04-12T18:53:59.385Z,60.19
2023-04-12T18:56:28.254Z,59.94
2023-04-12T18:58:57.391Z,62.39
2023-04-12T19:01:27.486Z,64.16
2023-04-12T19:03:57.495Z,63.92
2023-04-12T19:06:27.493Z,64.02
2023-04-12T19:08:56.345Z,62.85
2023-04-12T19:11:24.992Z,61.16
2023-04-12T19:13:53.748Z,60.72
2023-04-12T19:16:22.512Z,59.97
2023-04-12T19:18:52.668Z,59.97
2023-04-12T19:21:21.342Z,61.52
2023-04-12T19:23:50.544Z,64.13
2023-04-12T19:26:19.263Z,65.71
2023-04-12T19:28:47.864Z,64.63
2023-04-12T19:31:16.602Z,64.50
2023-04-12T19:33:59.047Z,63.29
2023-04-12T19:36:29.806Z,61.37
2023-04-12T19:38:58.295Z,60.69
2023-04-12T19:41:26.731Z,61.36
2023-04-12T19:43:55.289Z,60.29
2023-04-12T19:46:23.598Z,60.61
2023-04-12T19:48:52.807Z,60.45
2023-04-12T19:51:21.079Z,60.35
2023-04-12T19:53:53.244Z,60.69
2023-04-12T19:56:23.947Z,60.85
2023-04-12T19:58:54.728Z,60.63
2023-04-12T20:01:22.995Z,60.40
2023-04-12T20:03:51.242Z,60.74
2023-04-12T20:06:19.682Z,61.22
2023-04-12T20:08:47.938Z,61.51
2023-04-12T20:11:17.665Z,61.10
2023-04-12T20:13:46.342Z,60.88
2023-04-12T20:16:14.636Z,61.18
2023-04-12T20:18:42.876Z,61.55
2023-04-12T20:21:11.233Z,62.56
2023-04-12T20:23:39.425Z,62.64
2023-04-12T20:26:08.902Z,62.09
2023-04-12T20:28:38.868Z,62.84
2023-04-12T20:31:07.145Z,64.08
2023-04-12T20:33:35.328Z,64.06
2023-04-12T20:36:03.590Z,63.33
2023-04-12T20:38:31.973Z,62.51
2023-04-12T20:41:00.171Z,63.06
2023-04-12T20:43:28.482Z,63.88
2023-04-12T20:45:58.137Z,62.68
2023-04-12T20:48:26.476Z,62.22
2023-04-12T20:50:56.403Z,62.66
2023-04-12T20:53:24.655Z,64.55
2023-04-12T20:55:53.318Z,65.03
2023-04-12T20:58:21.594Z,65.91
2023-04-12T21:00:49.816Z,65.27
2023-04-12T21:03:19.675Z,64.90
2023-04-12T21:05:50.531Z,64.68
2023-04-12T21:08:18.739Z,64.66
2023-04-12T21:10:48.189Z,64.64
2023-04-12T21:13:16.420Z,64.87
2023-04-12T21:15:44.528Z,64.60
2023-04-12T21:18:12.686Z,64.59
2023-04-12T21:20:42.700Z,65.06
2023-04-12T21:23:11.906Z,65.66
2023-04-12T21:25:40.445Z,65.66
2023-04-12T21:28:08.598Z,65.30
2023-04-12T21:30:37.238Z,65.40
2023-04-12T21:33:05.463Z,64.20
2023-04-12T21:35:33.691Z,64.28
2023-04-12T21:38:03.319Z,64.20
2023-04-12T21:40:31.449Z,63.58
2023-04-12T21:42:59.711Z,63.07
2023-04-12T21:45:28.268Z,63.31
2023-04-12T21:47:57.095Z,63.80
2023-04-12T21:50:25.570Z,64.29
2023-04-12T21:52:55.101Z,65.19
2023-04-12T21:55:24.905Z,65.16
2023-04-12T21:57:53.106Z,65.01
2023-04-12T22:00:21.316Z,66.29
2023-04-12T22:02:49.648Z,65.99
2023-04-12T22:05:18.149Z,65.65
2023-04-12T22:07:46.300Z,65.75
2023-04-12T22:10:15.024Z,65.11
2023-04-12T22:12:50.638Z,64.98
2023-04-12T22:15:19.368Z,64.84
2023-04-12T22:17:47.830Z,65.02
2023-04-12T22:20:16.148Z,65.16
2023-04-12T22:22:44.326Z,65.45
2023-04-12T22:25:15.443Z,65.39
2023-04-12T22:27:46.572Z,65.48
2023-04-12T22:30:16.009Z,65.71
2023-04-12T22:32:44.276Z,65.91
2023-04-12T22:35:12.911Z,66.31
2023-04-12T22:37:41.568Z,65.97
2023-04-12T22:40:12.531Z,66.77
2023-04-12T22:42:46.963Z,67.60
2023-04-12T22:45:18.237Z,67.88
2023-04-12T22:47:47.695Z,67.86
2023-04-12T22:50:16.089Z,67.77
2023-04-12T22:52:44.219Z,67.74
2023-04-12T22:55:14.531Z,67.68
2023-04-12T22:57:42.961Z,67.89
2023-04-12T23:00:16.535Z,67.93
2023-04-12T23:02:48.723Z,68.44
2023-04-12T23:05:17.771Z,68.90
2023-04-12T23:07:46.028Z,68.89
2023-04-12T23:10:14.190Z,69.00
2023-04-12T23:12:42.370Z,68.73
2023-04-12T23:15:11.318Z,69.71
2023-04-12T23:17:39.635Z,69.97
2023-04-12T23:20:13.313Z,69.93
2023-04-12T23:22:57.231Z,69.72
2023-04-12T23:25:38.062Z,69.95
2023-04-12T23:28:07.684Z,71.04
2023-04-12T23:30:35.911Z,70.77
2023-04-12T23:33:04.554Z,70.13
2023-04-12T23:35:38.939Z,70.90
2023-04-12T23:38:07.263Z,71.03
2023-04-12T23:40:36.132Z,71.32
2023-04-12T23:43:04.308Z,71.52
2023-04-12T23:45:33.094Z,71.32
2023-04-12T23:48:01.657Z,71.51
2023-04-12T23:50:30.454Z,72.56
2023-04-12T23:53:00.035Z,72.74
2023-04-12T23:55:27.915Z,72.95
2023-04-12T23:57:56.054Z,73.01
